sensor_id;sensor_type;location;lat;lon;timestamp;pressure;altitude;pressure_sealevel;temperature;humidity
29433;BME280;16405;53.964;13.448;2023-02-03T00:01:48;101447.63;;;-0.91;100.00
29433;BME280;16405;53.964;13.448;2023-02-03T00:04:13;101426.09;;;-0.91;100.00
29433;BME280;16405;53.964;13.448;2023-02-03T00:06:40;101433.97;;;-0.84;100.00
29433;BME280;16405;53.964;13.448;2023-02-03T00:09:07;101445.22;;;-0.77;100.00
29433;BME280;16405;53.964;13.448;2023-02-03T00:11:33;101467.72;;;-0.70;100.00
29433;BME280;16405;53.964;13.448;2023-02-03T00:13:58;101460.03;;;-0.64;100.00
29433;BME280;16405;53.964;13.448;2023-02-03T00:16:24;101441.13;;;-0.59;100.00
29433;BME280;16405;53.964;13.448;2023-02-03T00:18:50;101427.28;;;-0.63;100.00
29433;BME280;16405;53.964;13.448;2023-02-03T00:21:16;101418.66;;;-0.64;100.00
29433;BME280;16405;53.964;13.448;2023-02-03T00:23:42;101403.09;;;-0.65;100.00
29433;BME280;16405;53.964;13.448;2023-02-03T00:26:16;101410.91;;;-0.60;100.00
29433;BME280;16405;53.964;13.448;2023-02-03T00:28:42;101412.69;;;-0.56;100.00
29433;BME280;16405;53.964;13.448;2023-02-03T00:31:21;101399.75;;;-0.55;100.00
29433;BME280;16405;53.964;13.448;2023-02-03T00:33:55;101396.34;;;-0.51;100.00
29433;BME280;16405;53.964;13.448;2023-02-03T00:36:24;101379.97;;;-0.53;100.00
29433;BME280;16405;53.964;13.448;2023-02-03T00:38:50;101369.66;;;-0.48;100.00
29433;BME280;16405;53.964;13.448;2023-02-03T00:41:18;101366.22;;;-0.46;100.00
29433;BME280;16405;53.964;13.448;2023-02-03T00:43:44;101351.63;;;-0.40;100.00
29433;BME280;16405;53.964;13.448;2023-02-03T00:46:09;101364.63;;;-0.34;100.00
29433;BME280;16405;53.964;13.448;2023-02-03T00:48:35;101362.91;;;-0.29;100.00
29433;BME280;16405;53.964;13.448;2023-02-03T00:51:04;101356.94;;;-0.22;100.00
29433;BME280;16405;53.964;13.448;2023-02-03T00:53:30;101353.53;;;-0.16;100.00
29433;BME280;16405;53.964;13.448;2023-02-03T00:55:56;101351.81;;;-0.11;100.00
29433;BME280;16405;53.964;13.448;2023-02-03T00:58:22;101355.31;;;-0.05;100.00
29433;BME280;16405;53.964;13.448;2023-02-03T01:00:48;101346.72;;;-0.04;100.00
29433;BME280;16405;53.964;13.448;2023-02-03T01:03:15;101343.28;;;0.01;100.00
29433;BME280;16405;53.964;13.448;2023-02-03T01:05:41;101340.72;;;0.04;100.00
29433;BME280;16405;53.964;13.448;2023-02-03T01:08:09;101338.16;;;0.08;100.00
29433;BME280;16405;53.964;13.448;2023-02-03T01:10:37;101345.97;;;0.14;100.00
29433;BME280;16405;53.964;13.448;2023-02-03T01:13:03;101335.63;;;0.19;100.00
29433;BME280;16405;53.964;13.448;2023-02-03T01:15:29;101320.16;;;0.27;100.00
29433;BME280;16405;53.964;13.448;2023-02-03T01:17:55;101317.56;;;0.31;100.00
29433;BME280;16405;53.964;13.448;2023-02-03T01:20:28;101317.63;;;0.39;100.00
29433;BME280;16405;53.964;13.448;2023-02-03T01:22:54;101310.72;;;0.39;100.00
29433;BME280;16405;53.964;13.448;2023-02-03T01:25:20;101301.19;;;0.40;100.00
29433;BME280;16405;53.964;13.448;2023-02-03T01:27:45;101293.44;;;0.43;100.00
29433;BME280;16405;53.964;13.448;2023-02-03T01:30:14;101282.22;;;0.47;100.00
29433;BME280;16405;53.964;13.448;2023-02-03T01:32:40;101272.75;;;0.55;100.00
29433;BME280;16405;53.964;13.448;2023-02-03T01:35:06;101274.50;;;0.59;100.00
29433;BME280;16405;53.964;13.448;2023-02-03T01:37:32;101270.19;;;0.60;100.00
29433;BME280;16405;53.964;13.448;2023-02-03T01:39:58;101257.25;;;0.63;100.00
29433;BME280;16405;53.964;13.448;2023-02-03T01:42:23;101252.06;;;0.63;100.00
29433;BME280;16405;53.964;13.448;2023-02-03T01:44:50;101257.22;;;0.61;100.00
29433;BME280;16405;53.964;13.448;2023-02-03T01:50:20;101236.50;;;0.61;100.00
29433;BME280;16405;53.964;13.448;2023-02-03T01:52:54;101237.38;;;0.59;100.00
29433;BME280;16405;53.964;13.448;2023-02-03T01:55:59;101220.06;;;0.63;100.00
29433;BME280;16405;53.964;13.448;2023-02-03T01:58:28;101205.41;;;0.63;100.00
29433;BME280;16405;53.964;13.448;2023-02-03T02:00:57;101201.09;;;0.64;100.00
29433;BME280;16405;53.964;13.448;2023-02-03T02:03:30;101183.81;;;0.67;100.00
29433;BME280;16405;53.964;13.448;2023-02-03T02:06:08;101182.06;;;0.71;100.00
29433;BME280;16405;53.964;13.448;2023-02-03T02:08:36;101182.06;;;0.71;100.00
29433;BME280;16405;53.964;13.448;2023-02-03T02:11:06;101184.69;;;0.69;100.00
29433;BME280;16405;53.964;13.448;2023-02-03T02:13:34;101182.94;;;0.68;100.00
29433;BME280;16405;53.964;13.448;2023-02-03T02:21:30;101148.41;;;0.63;100.00
29433;BME280;16405;53.964;13.448;2023-02-03T02:32:46;101120.75;;;0.64;100.00
29433;BME280;16405;53.964;13.448;2023-02-03T02:35:38;101118.16;;;0.64;100.00
29433;BME280;16405;53.964;13.448;2023-02-03T02:38:21;101094.84;;;0.65;100.00
29433;BME280;16405;53.964;13.448;2023-02-03T02:41:13;101092.22;;;0.64;100.00
29433;BME280;16405;53.964;13.448;2023-02-03T02:44:00;101077.53;;;0.66;100.00
29433;BME280;16405;53.964;13.448;2023-02-03T02:46:38;101057.69;;;0.61;100.00
29433;BME280;16405;53.964;13.448;2023-02-03T02:52:03;101036.94;;;0.65;100.00
29433;BME280;16405;53.964;13.448;2023-02-03T02:54:36;101030.88;;;0.64;100.00
29433;BME280;16405;53.964;13.448;2023-02-03T02:57:05;101018.81;;;0.68;100.00
29433;BME280;16405;53.964;13.448;2023-02-03T02:59:37;101009.28;;;0.67;100.00
29433;BME280;16405;53.964;13.448;2023-02-03T03:02:03;101008.41;;;0.65;100.00
29433;BME280;16405;53.964;13.448;2023-02-03T03:04:31;101002.38;;;0.63;100.00
29433;BME280;16405;53.964;13.448;2023-02-03T03:07:03;100990.28;;;0.61;100.00
29433;BME280;16405;53.964;13.448;2023-02-03T03:09:47;100988.59;;;0.60;100.00
29433;BME280;16405;53.964;13.448;2023-02-03T03:12:31;100983.38;;;0.62;100.00
29433;BME280;16405;53.964;13.448;2023-02-03T03:15:13;100977.34;;;0.60;100.00
29433;BME280;16405;53.964;13.448;2023-02-03T03:18:17;100952.28;;;0.57;100.00
29433;BME280;16405;53.964;13.448;2023-02-03T03:20:46;100947.13;;;0.53;100.00
29433;BME280;16405;53.964;13.448;2023-02-03T03:23:23;100948.84;;;0.55;100.00
29433;BME280;16405;53.964;13.448;2023-02-03T03:28:41;100938.50;;;0.52;100.00
29433;BME280;16405;53.964;13.448;2023-02-03T03:31:09;100929.88;;;0.44;100.00
29433;BME280;16405;53.964;13.448;2023-02-03T03:33:35;100916.91;;;0.41;100.00
29433;BME280;16405;53.964;13.448;2023-02-03T03:36:23;100906.53;;;0.41;100.00
29433;BME280;16405;53.964;13.448;2023-02-03T03:39:12;100888.44;;;0.38;100.00
29433;BME280;16405;53.964;13.448;2023-02-03T03:44:21;100882.38;;;0.44;100.00
29433;BME280;16405;53.964;13.448;2023-02-03T03:47:02;100884.94;;;0.53;100.00
29433;BME280;16405;53.964;13.448;2023-02-03T03:49:33;100865.94;;;0.45;100.00
29433;BME280;16405;53.964;13.448;2023-02-03T03:52:13;100857.31;;;0.44;100.00
29433;BME280;16405;53.964;13.448;2023-02-03T03:54:41;100852.13;;;0.50;100.00
29433;BME280;16405;53.964;13.448;2023-02-03T03:57:22;100844.34;;;0.55;100.00
29433;BME280;16405;53.964;13.448;2023-02-03T03:59:53;100841.69;;;0.63;100.00
29433;BME280;16405;53.964;13.448;2023-02-03T04:02:20;100827.88;;;0.67;100.00
29433;BME280;16405;53.964;13.448;2023-02-03T04:04:47;100809.78;;;0.57;100.00
29433;BME280;16405;53.964;13.448;2023-02-03T04:07:19;100814.06;;;0.68;100.00
29433;BME280;16405;53.964;13.448;2023-02-03T04:09:45;100804.50;;;0.71;100.00
29433;BME280;16405;53.964;13.448;2023-02-03T04:12:23;100799.34;;;0.73;100.00
29433;BME280;16405;53.964;13.448;2023-02-03T04:14:49;100792.41;;;0.76;100.00
29433;BME280;16405;53.964;13.448;2023-02-03T04:17:15;100781.19;;;0.73;100.00
29433;BME280;16405;53.964;13.448;2023-02-03T04:19:40;100776.00;;;0.76;100.00
29433;BME280;16405;53.964;13.448;2023-02-03T04:22:06;100775.13;;;0.80;100.00
29433;BME280;16405;53.964;13.448;2023-02-03T04:24:32;100764.75;;;0.80;100.00
29433;BME280;16405;53.964;13.448;2023-02-03T04:26:58;100750.91;;;0.79;100.00
29433;BME280;16405;53.964;13.448;2023-02-03T04:29:29;100742.28;;;0.80;100.00
29433;BME280;16405;53.964;13.448;2023-02-03T04:31:55;100741.38;;;0.83;100.00
29433;BME280;16405;53.964;13.448;2023-02-03T04:34:20;100736.19;;;0.86;100.00
29433;BME280;16405;53.964;13.448;2023-02-03T04:36:46;100736.19;;;0.88;100.00
29433;BME280;16405;53.964;13.448;2023-02-03T04:39:12;100721.47;;;0.90;100.00
29433;BME280;16405;53.964;13.448;2023-02-03T04:41:41;100717.13;;;0.90;100.00
29433;BME280;16405;53.964;13.448;2023-02-03T04:44:06;100707.63;;;0.94;100.00
29433;BME280;16405;53.964;13.448;2023-02-03T04:46:32;100700.69;;;0.97;100.00
29433;BME280;16405;53.964;13.448;2023-02-03T04:48:58;100695.47;;;1.02;100.00
29433;BME280;16405;53.964;13.448;2023-02-03T04:51:24;100696.31;;;1.02;100.00
29433;BME280;16405;53.964;13.448;2023-02-03T04:53:49;100686.78;;;1.05;100.00
29433;BME280;16405;53.964;13.448;2023-02-03T04:56:16;100678.97;;;1.08;100.00
29433;BME280;16405;53.964;13.448;2023-02-03T04:58:41;100664.31;;;1.08;100.00
29433;BME280;16405;53.964;13.448;2023-02-03T05:01:08;100652.22;;;1.04;100.00
29433;BME280;16405;53.964;13.448;2023-02-03T05:03:35;100622.78;;;1.10;100.00
29433;BME280;16405;53.964;13.448;2023-02-03T05:06:00;100630.50;;;1.17;100.00
29433;BME280;16405;53.964;13.448;2023-02-03T05:08:28;100619.25;;;1.17;100.00
29433;BME280;16405;53.964;13.448;2023-02-03T05:10:54;100599.41;;;1.13;100.00
29433;BME280;16405;53.964;13.448;2023-02-03T05:13:20;100586.41;;;1.16;100.00
29433;BME280;16405;53.964;13.448;2023-02-03T05:15:53;100578.63;;;1.19;100.00
29433;BME280;16405;53.964;13.448;2023-02-03T05:18:19;100570.78;;;1.23;100.00
29433;BME280;16405;53.964;13.448;2023-02-03T05:20:45;100565.53;;;1.27;100.00
29433;BME280;16405;53.964;13.448;2023-02-03T05:23:11;100572.41;;;1.32;100.00
29433;BME280;16405;53.964;13.448;2023-02-03T05:25:36;100554.22;;;1.34;100.00
29433;BME280;16405;53.964;13.448;2023-02-03T05:28:03;100550.69;;;1.41;100.00
29433;BME280;16405;53.964;13.448;2023-02-03T05:30:31;100542.84;;;1.44;100.00
29433;BME280;16405;53.964;13.448;2023-02-03T05:32:57;100528.97;;;1.50;100.00
29433;BME280;16405;53.964;13.448;2023-02-03T05:35:22;100536.63;;;1.57;100.00
29433;BME280;16405;53.964;13.448;2023-02-03T05:37:48;100527.06;;;1.62;100.00
29433;BME280;16405;53.964;13.448;2023-02-03T05:40:14;100514.03;;;1.66;100.00
29433;BME280;16405;53.964;13.448;2023-02-03T05:43:08;100503.56;;;1.73;100.00
29433;BME280;16405;53.964;13.448;2023-02-03T05:45:34;100500.88;;;1.79;100.00
29433;BME280;16405;53.964;13.448;2023-02-03T05:48:00;100500.75;;;1.87;100.00
29433;BME280;16405;53.964;13.448;2023-02-03T05:50:36;100503.28;;;1.92;100.00
29433;BME280;16405;53.964;13.448;2023-02-03T05:53:04;100488.53;;;1.95;100.00
29433;BME280;16405;53.964;13.448;2023-02-03T05:55:34;100483.19;;;2.04;100.00
29433;BME280;16405;53.964;13.448;2023-02-03T05:58:04;100481.28;;;2.16;100.00
29433;BME280;16405;53.964;13.448;2023-02-03T06:00:30;100466.41;;;2.27;100.00
29433;BME280;16405;53.964;13.448;2023-02-03T06:03:00;100451.56;;;2.34;100.00
29433;BME280;16405;53.964;13.448;2023-02-03T06:05:28;100458.28;;;2.44;100.00
29433;BME280;16405;53.964;13.448;2023-02-03T06:07:54;100453.00;;;2.50;100.00
29433;BME280;16405;53.964;13.448;2023-02-03T06:10:21;100446.72;;;2.62;100.00
29433;BME280;16405;53.964;13.448;2023-02-03T06:12:47;100445.72;;;2.69;100.00
29433;BME280;16405;53.964;13.448;2023-02-03T06:15:14;100435.19;;;2.77;100.00
29433;BME280;16405;53.964;13.448;2023-02-03T06:17:50;100434.97;;;2.87;100.00
29433;BME280;16405;53.964;13.448;2023-02-03T06:20:18;100425.31;;;2.94;100.00
29433;BME280;16405;53.964;13.448;2023-02-03T06:22:51;100411.31;;;3.00;100.00
29433;BME280;16405;53.964;13.448;2023-02-03T06:25:17;100397.25;;;3.08;100.00
29433;BME280;16405;53.964;13.448;2023-02-03T06:27:43;100397.13;;;3.15;100.00
29433;BME280;16405;53.964;13.448;2023-02-03T06:30:09;100390.09;;;3.20;100.00
29433;BME280;16405;53.964;13.448;2023-02-03T06:32:38;100382.09;;;3.27;100.00
29433;BME280;16405;53.964;13.448;2023-02-03T06:35:07;100381.06;;;3.35;100.00
29433;BME280;16405;53.964;13.448;2023-02-03T06:37:33;100377.50;;;3.40;100.00
29433;BME280;16405;53.964;13.448;2023-02-03T06:40:01;100377.34;;;3.46;100.00
29433;BME280;16405;53.964;13.448;2023-02-03T06:42:27;100369.41;;;3.53;100.00
29433;BME280;16405;53.964;13.448;2023-02-03T06:45:00;100357.94;;;3.60;100.00
29433;BME280;16405;53.964;13.448;2023-02-03T06:47:26;100359.50;;;3.67;100.00
29433;BME280;16405;53.964;13.448;2023-02-03T06:49:51;100348.09;;;3.73;100.00
29433;BME280;16405;53.964;13.448;2023-02-03T06:52:18;100347.94;;;3.79;100.00
29433;BME280;16405;53.964;13.448;2023-02-03T06:54:44;100338.31;;;3.82;100.00
29433;BME280;16405;53.964;13.448;2023-02-03T06:57:10;100328.53;;;3.90;100.00
29433;BME280;16405;53.964;13.448;2023-02-03T06:59:38;100327.50;;;3.98;100.00
29433;BME280;16405;53.964;13.448;2023-02-03T07:02:04;100327.41;;;4.01;100.00
29433;BME280;16405;53.964;13.448;2023-02-03T07:04:30;100322.03;;;4.08;100.00
29433;BME280;16405;53.964;13.448;2023-02-03T07:06:56;100316.63;;;4.15;100.00
29433;BME280;16405;53.964;13.448;2023-02-03T07:09:22;100313.72;;;4.25;100.00
29433;BME280;16405;53.964;13.448;2023-02-03T07:11:55;100305.69;;;4.35;100.00
29433;BME280;16405;53.964;13.448;2023-02-03T07:14:21;100298.53;;;4.41;100.00
29433;BME280;16405;53.964;13.448;2023-02-03T07:16:47;100289.59;;;4.50;100.00
29433;BME280;16405;53.964;13.448;2023-02-03T07:19:13;100291.97;;;4.58;100.00
29433;BME280;16405;53.964;13.448;2023-02-03T07:21:41;100301.22;;;4.69;100.00
29433;BME280;16405;53.964;13.448;2023-02-03T07:24:10;100277.59;;;4.74;100.00
29433;BME280;16405;53.964;13.448;2023-02-03T07:26:36;100274.78;;;4.82;100.00
29433;BME280;16405;53.964;13.448;2023-02-03T07:29:03;100276.28;;;4.89;100.00
29433;BME280;16405;53.964;13.448;2023-02-03T07:31:30;100258.78;;;4.92;100.00
29433;BME280;16405;53.964;13.448;2023-02-03T07:33:59;100253.31;;;5.00;100.00
29433;BME280;16405;53.964;13.448;2023-02-03T07:36:26;100247.97;;;5.05;100.00
29433;BME280;16405;53.964;13.448;2023-02-03T07:38:53;100239.16;;;5.07;100.00
29433;BME280;16405;53.964;13.448;2023-02-03T07:41:19;100239.78;;;5.16;100.00
29433;BME280;16405;53.964;13.448;2023-02-03T07:43:53;100234.41;;;5.20;100.00
29433;BME280;16405;53.964;13.448;2023-02-03T07:46:20;100223.84;;;5.25;100.00
29433;BME280;16405;53.964;13.448;2023-02-03T07:48:45;100220.13;;;5.32;100.00
29433;BME280;16405;53.964;13.448;2023-02-03T07:51:11;100210.41;;;5.35;100.00
29433;BME280;16405;53.964;13.448;2023-02-03T07:53:37;100208.53;;;5.41;100.00
29433;BME280;16405;53.964;13.448;2023-02-03T07:56:11;100204.84;;;5.46;100.00
29433;BME280;16405;53.964;13.448;2023-02-03T07:58:38;100189.94;;;5.50;100.00
29433;BME280;16405;53.964;13.448;2023-02-03T08:01:15;100192.38;;;5.54;100.00
29433;BME280;16405;53.964;13.448;2023-02-03T08:03:41;100192.28;;;5.58;100.00
29433;BME280;16405;53.964;13.448;2023-02-03T08:06:07;100181.84;;;5.58;100.00
29433;BME280;16405;53.964;13.448;2023-02-03T08:08:34;100183.38;;;5.63;100.00
29433;BME280;16405;53.964;13.448;2023-02-03T08:11:11;100171.06;;;5.67;100.00
29433;BME280;16405;53.964;13.448;2023-02-03T08:13:44;100179.69;;;5.69;100.00
29433;BME280;16405;53.964;13.448;2023-02-03T08:16:10;100170.84;;;5.73;100.00
29433;BME280;16405;53.964;13.448;2023-02-03T08:18:36;100168.13;;;5.76;100.00
29433;BME280;16405;53.964;13.448;2023-02-03T08:21:02;100170.63;;;5.79;100.00
29433;BME280;16405;53.964;13.448;2023-02-03T08:23:32;100163.53;;;5.83;100.00
29433;BME280;16405;53.964;13.448;2023-02-03T08:26:05;100153.03;;;5.84;100.00
29433;BME280;16405;53.964;13.448;2023-02-03T08:28:31;100155.47;;;5.89;100.00
29433;BME280;16405;53.964;13.448;2023-02-03T08:31:11;100152.69;;;5.93;100.00
29433;BME280;16405;53.964;13.448;2023-02-03T08:33:47;100150.06;;;5.93;100.00
29433;BME280;16405;53.964;13.448;2023-02-03T08:36:12;100144.81;;;5.95;100.00
29433;BME280;16405;53.964;13.448;2023-02-03T08:38:39;100139.44;;;6.00;100.00
29433;BME280;16405;53.964;13.448;2023-02-03T08:41:15;100138.41;;;6.04;100.00
29433;BME280;16405;53.964;13.448;2023-02-03T08:43:43;100137.44;;;6.06;100.00
29433;BME280;16405;53.964;13.448;2023-02-03T08:46:13;100123.34;;;6.10;100.00
29433;BME280;16405;53.964;13.448;2023-02-03T08:48:41;100130.16;;;6.14;100.00
29433;BME280;16405;53.964;13.448;2023-02-03T08:51:22;100125.59;;;6.20;100.00
29433;BME280;16405;53.964;13.448;2023-02-03T08:53:49;100112.44;;;6.23;100.00
29433;BME280;16405;53.964;13.448;2023-02-03T08:56:14;100115.84;;;6.25;100.00
29433;BME280;16405;53.964;13.448;2023-02-03T08:58:40;100122.75;;;6.26;100.00
29433;BME280;16405;53.964;13.448;2023-02-03T09:01:14;100120.94;;;6.28;100.00
29433;BME280;16405;53.964;13.448;2023-02-03T09:03:42;100122.56;;;6.30;100.00
29433;BME280;16405;53.964;13.448;2023-02-03T09:06:12;100122.56;;;6.30;100.00
29433;BME280;16405;53.964;13.448;2023-02-03T09:08:44;100115.34;;;6.37;100.00
29433;BME280;16405;53.964;13.448;2023-02-03T09:11:21;100122.25;;;6.40;100.00
29433;BME280;16405;53.964;13.448;2023-02-03T09:13:48;100127.47;;;6.40;100.00
29433;BME280;16405;53.964;13.448;2023-02-03T09:16:18;100129.41;;;6.34;100.00
29433;BME280;16405;53.964;13.448;2023-02-03T09:18:48;100127.00;;;6.28;100.00
29433;BME280;16405;53.964;13.448;2023-02-03T09:21:19;100133.97;;;6.29;100.00
29433;BME280;16405;53.964;13.448;2023-02-03T09:23:51;100139.56;;;6.20;100.00
29433;BME280;16405;53.964;13.448;2023-02-03T09:26:20;100169.66;;;6.07;100.00
29433;BME280;16405;53.964;13.448;2023-02-03T09:28:46;100170.19;;;5.91;100.00
29433;BME280;16405;53.964;13.448;2023-02-03T09:31:20;100180.97;;;5.82;100.00
29433;BME280;16405;53.964;13.448;2023-02-03T09:33:52;100146.63;;;5.68;100.00
29433;BME280;16405;53.964;13.448;2023-02-03T09:36:27;100155.09;;;5.51;100.00
29433;BME280;16405;53.964;13.448;2023-02-03T09:38:53;100165.63;;;5.48;100.00
29433;BME280;16405;53.964;13.448;2023-02-03T09:41:34;100171.81;;;5.45;100.00
29433;BME280;16405;53.964;13.448;2023-02-03T09:44:59;100172.66;;;5.46;100.00
29433;BME280;16405;53.964;13.448;2023-02-03T09:47:23;100166.91;;;5.36;100.00
29433;BME280;16405;53.964;13.448;2023-02-03T09:50:05;100184.69;;;5.25;100.00
29433;BME280;16405;53.964;13.448;2023-02-03T09:52:44;100163.38;;;5.12;100.00
29433;BME280;16405;53.964;13.448;2023-02-03T09:55:49;100169.66;;;5.05;100.00
29433;BME280;16405;53.964;13.448;2023-02-03T09:58:21;100184.53;;;5.03;100.00
29433;BME280;16405;53.964;13.448;2023-02-03T10:01:02;100179.88;;;5.12;100.00
29433;BME280;16405;53.964;13.448;2023-02-03T10:23:58;100177.75;;;6.24;100.00
29433;BME280;16405;53.964;13.448;2023-02-03T10:26:56;100164.38;;;6.54;100.00
29433;BME280;16405;53.964;13.448;2023-02-03T10:32:43;100154.72;;;6.78;100.00
29433;BME280;16405;53.964;13.448;2023-02-03T10:45:20;100183.38;;;6.59;98.82
29433;BME280;16405;53.964;13.448;2023-02-03T10:48:15;100189.84;;;6.72;97.37
29433;BME280;16405;53.964;13.448;2023-02-03T10:51:25;100171.19;;;6.58;97.42
29433;BME280;16405;53.964;13.448;2023-02-03T10:54:34;100190.16;;;6.41;97.73
29433;BME280;16405;53.964;13.448;2023-02-03T10:57:13;100211.38;;;6.33;97.26
29433;BME280;16405;53.964;13.448;2023-02-03T11:07:26;100192.41;;;6.74;95.06
29433;BME280;16405;53.964;13.448;2023-02-03T11:10:38;100207.13;;;6.76;93.82
29433;BME280;16405;53.964;13.448;2023-02-03T11:13:55;100226.38;;;6.52;93.73
29433;BME280;16405;53.964;13.448;2023-02-03T11:16:42;100213.06;;;6.34;94.06
29433;BME280;16405;53.964;13.448;2023-02-03T11:19:21;100223.09;;;6.23;93.59
29433;BME280;16405;53.964;13.448;2023-02-03T11:21:52;100210.34;;;6.14;94.12
29433;BME280;16405;53.964;13.448;2023-02-03T11:24:40;100194.44;;;6.20;94.92
29433;BME280;16405;53.964;13.448;2023-02-03T11:27:19;100217.97;;;6.20;94.55
29433;BME280;16405;53.964;13.448;2023-02-03T11:30:19;100215.28;;;6.22;93.72
29433;BME280;16405;53.964;13.448;2023-02-03T11:32:49;100218.47;;;6.30;93.66
29433;BME280;16405;53.964;13.448;2023-02-03T11:35:26;100222.28;;;6.45;93.81
29433;BME280;16405;53.964;13.448;2023-02-03T11:38:07;100218.50;;;6.52;94.18
29433;BME280;16405;53.964;13.448;2023-02-03T11:40:58;100234.69;;;6.40;92.43
29433;BME280;16405;53.964;13.448;2023-02-03T11:43:26;100213.88;;;6.36;91.70
29433;BME280;16405;53.964;13.448;2023-02-03T11:46:03;100237.97;;;6.45;92.38
29433;BME280;16405;53.964;13.448;2023-02-03T11:48:47;100240.84;;;6.61;93.15
29433;BME280;16405;53.964;13.448;2023-02-03T11:54:53;100237.34;;;6.62;92.76
29433;BME280;16405;53.964;13.448;2023-02-03T12:18:51;100239.69;;;6.46;94.43
29433;BME280;16405;53.964;13.448;2023-02-03T12:21:45;100236.19;;;6.22;92.30
29433;BME280;16405;53.964;13.448;2023-02-03T12:24:53;100248.13;;;6.05;93.08
29433;BME280;16405;53.964;13.448;2023-02-03T12:30:53;100251.41;;;5.85;92.94
29433;BME280;16405;53.964;13.448;2023-02-03T12:33:31;100245.28;;;5.86;93.70
29433;BME280;16405;53.964;13.448;2023-02-03T12:36:31;100230.66;;;5.81;93.57
29433;BME280;16405;53.964;13.448;2023-02-03T12:42:31;100231.91;;;5.95;91.98
29433;BME280;16405;53.964;13.448;2023-02-03T12:45:13;100238.25;;;6.13;91.71
29433;BME280;16405;53.964;13.448;2023-02-03T12:48:10;100245.13;;;6.16;91.50
29433;BME280;16405;53.964;13.448;2023-02-03T12:50:52;100253.28;;;6.07;90.67
29433;BME280;16405;53.964;13.448;2023-02-03T12:53:33;100245.34;;;6.10;90.87
29433;BME280;16405;53.964;13.448;2023-02-03T12:56:12;100229.00;;;6.05;90.72
29433;BME280;16405;53.964;13.448;2023-02-03T12:59:05;100252.84;;;6.19;90.25
29433;BME280;16405;53.964;13.448;2023-02-03T13:01:54;100261.50;;;6.21;90.37
29433;BME280;16405;53.964;13.448;2023-02-03T13:04:48;100248.84;;;6.09;89.43
29433;BME280;16405;53.964;13.448;2023-02-03T13:07:27;100262.25;;;6.00;90.18
29433;BME280;16405;53.964;13.448;2023-02-03T13:10:37;100269.91;;;5.79;91.60
29433;BME280;16405;53.964;13.448;2023-02-03T13:13:05;100270.16;;;5.71;93.59
29433;BME280;16405;53.964;13.448;2023-02-03T13:15:43;100253.97;;;5.62;94.22
29433;BME280;16405;53.964;13.448;2023-02-03T13:18:35;100246.41;;;5.52;95.17
29433;BME280;16405;53.964;13.448;2023-02-03T13:21:14;100229.25;;;5.45;96.18
29433;BME280;16405;53.964;13.448;2023-02-03T13:23:46;100246.84;;;5.40;97.88
29433;BME280;16405;53.964;13.448;2023-02-03T13:30:36;100257.53;;;5.32;99.64
29433;BME280;16405;53.964;13.448;2023-02-03T13:47:53;100266.16;;;5.08;100.00
29433;BME280;16405;53.964;13.448;2023-02-03T13:50:25;100270.41;;;5.10;100.00
29433;BME280;16405;53.964;13.448;2023-02-03T13:53:00;100252.13;;;5.10;100.00
29433;BME280;16405;53.964;13.448;2023-02-03T13:55:40;100271.19;;;5.14;100.00
29433;BME280;16405;53.964;13.448;2023-02-03T13:58:38;100267.50;;;5.20;100.00
29433;BME280;16405;53.964;13.448;2023-02-03T14:01:42;100272.69;;;5.21;100.00
29433;BME280;16405;53.964;13.448;2023-02-03T14:07:37;100282.47;;;5.14;100.00
29433;BME280;16405;53.964;13.448;2023-02-03T14:12:56;100289.56;;;5.09;100.00
29433;BME280;16405;53.964;13.448;2023-02-03T14:20:53;100308.63;;;5.11;100.00
29433;BME280;16405;53.964;13.448;2023-02-03T14:23:41;100297.16;;;5.17;100.00
29433;BME280;16405;53.964;13.448;2023-02-03T14:26:41;100314.63;;;5.15;100.00
29433;BME280;16405;53.964;13.448;2023-02-03T14:29:43;100290.34;;;5.13;100.00
29433;BME280;16405;53.964;13.448;2023-02-03T14:32:12;100339.03;;;5.14;100.00
29433;BME280;16405;53.964;13.448;2023-02-03T14:37:34;100334.59;;;5.16;100.00
29433;BME280;16405;53.964;13.448;2023-02-03T14:40:28;100325.88;;;5.17;100.00
29433;BME280;16405;53.964;13.448;2023-02-03T14:43:08;100336.28;;;5.19;100.00
29433;BME280;16405;53.964;13.448;2023-02-03T14:46:06;100340.84;;;5.12;100.00
29433;BME280;16405;53.964;13.448;2023-02-03T14:52:27;100328.78;;;5.08;100.00
29433;BME280;16405;53.964;13.448;2023-02-03T14:57:49;100335.81;;;5.06;100.00
29433;BME280;16405;53.964;13.448;2023-02-03T15:03:22;100361.91;;;5.06;100.00
29433;BME280;16405;53.964;13.448;2023-02-03T15:06:04;100356.72;;;5.04;100.00
29433;BME280;16405;53.964;13.448;2023-02-03T15:13:51;100361.34;;;4.94;100.00
29433;BME280;16405;53.964;13.448;2023-02-03T15:16:27;100351.91;;;4.90;100.00
29433;BME280;16405;53.964;13.448;2023-02-03T15:18:58;100364.19;;;4.87;100.00
29433;BME280;16405;53.964;13.448;2023-02-03T15:21:31;100355.56;;;4.83;100.00
29433;BME280;16405;53.964;13.448;2023-02-03T15:23:58;100353.03;;;4.82;100.00
29433;BME280;16405;53.964;13.448;2023-02-03T15:26:30;100369.44;;;4.85;100.00
29433;BME280;16405;53.964;13.448;2023-02-03T15:29:48;100361.75;;;4.81;100.00
29433;BME280;16405;53.964;13.448;2023-02-03T15:32:14;100370.50;;;4.78;100.00
29433;BME280;16405;53.964;13.448;2023-02-03T15:34:48;100396.50;;;4.81;100.00
29433;BME280;16405;53.964;13.448;2023-02-03T15:37:51;100392.09;;;4.83;100.00
29433;BME280;16405;53.964;13.448;2023-02-03T15:40:34;100383.41;;;4.83;100.00